sensor_id;sensor_type;location;lat;lon;timestamp;pressure;altitude;pressure_sealevel;temperature;humidity
76331;BME280;65148;51.912;15.570;2023-06-22T00:07:19;101793.66;;;22.37;90.97
76331;BME280;65148;51.912;15.570;2023-06-22T00:22:21;101808.38;;;21.87;94.87
76331;BME280;65148;51.912;15.570;2023-06-22T00:37:58;101829.23;;;21.34;100.00
76331;BME280;65148;51.912;15.570;2023-06-22T00:53:06;101843.17;;;21.08;100.00
76331;BME280;65148;51.912;15.570;2023-06-22T01:08:23;101840.29;;;20.79;100.00
76331;BME280;65148;51.912;15.570;2023-06-22T01:38:51;101857.54;;;20.24;100.00
76331;BME280;65148;51.912;15.570;2023-06-22T01:53:53;101879.65;;;20.07;100.00
76331;BME280;65148;51.912;15.570;2023-06-22T02:09:20;101864.80;;;19.77;100.00
76331;BME280;65148;51.912;15.570;2023-06-22T02:24:22;101892.06;;;19.70;100.00
76331;BME280;65148;51.912;15.570;2023-06-22T02:39:24;101888.77;;;19.59;100.00
76331;BME280;65148;51.912;15.570;2023-06-22T02:54:25;101896.72;;;19.52;100.00
76331;BME280;65148;51.912;15.570;2023-06-22T03:09:43;101894.16;;;19.33;100.00
76331;BME280;65148;51.912;15.570;2023-06-22T03:24:44;101895.52;;;19.45;100.00
76331;BME280;65148;51.912;15.570;2023-06-22T03:39:45;101907.58;;;19.49;100.00
76331;BME280;65148;51.912;15.570;2023-06-22T03:54:47;101911.98;;;19.89;100.00
76331;BME280;65148;51.912;15.570;2023-06-22T04:10:07;101928.48;;;20.29;100.00
76331;BME280;65148;51.912;15.570;2023-06-22T04:25:08;101914.06;;;20.75;100.00
76331;BME280;65148;51.912;15.570;2023-06-22T04:40:09;101896.72;;;21.21;100.00
76331;BME280;65148;51.912;15.570;2023-06-22T04:55:11;101887.11;;;21.65;100.00
76331;BME280;65148;51.912;15.570;2023-06-22T05:10:31;101910.91;;;22.04;100.00
76331;BME280;65148;51.912;15.570;2023-06-22T05:25:31;101904.51;;;22.54;100.00
76331;BME280;65148;51.912;15.570;2023-06-22T05:40:33;101916.15;;;22.89;100.00
76331;BME280;65148;51.912;15.570;2023-06-22T05:55:34;101946.80;;;23.25;100.00
76331;BME280;65148;51.912;15.570;2023-06-22T06:10:53;101963.41;;;23.34;100.00
76331;BME280;65148;51.912;15.570;2023-06-22T06:25:56;101986.76;;;23.54;100.00
76331;BME280;65148;51.912;15.570;2023-06-22T06:40:58;101983.11;;;23.86;99.80
76331;BME280;65148;51.912;15.570;2023-06-22T06:56:00;101995.63;;;24.17;99.31
76331;BME280;65148;51.912;15.570;2023-06-22T07:11:16;101981.96;;;24.36;96.70
76331;BME280;65148;51.912;15.570;2023-06-22T07:26:17;101984.98;;;24.83;96.87
76331;BME280;65148;51.912;15.570;2023-06-22T07:41:18;101972.47;;;25.17;89.35
76331;BME280;65148;51.912;15.570;2023-06-22T07:56:20;101953.25;;;25.28;81.70
76331;BME280;65148;51.912;15.570;2023-06-22T08:11:38;101916.15;;;25.71;78.30
76331;BME280;65148;51.912;15.570;2023-06-22T08:26:39;101941.63;;;26.20;77.10
76331;BME280;65148;51.912;15.570;2023-06-22T08:41:40;101937.68;;;26.56;69.28
76331;BME280;65148;51.912;15.570;2023-06-22T08:56:41;101940.58;;;26.98;62.56
76331;BME280;65148;51.912;15.570;2023-06-22T09:11:59;101922.50;;;27.34;59.22
76331;BME280;65148;51.912;15.570;2023-06-22T09:27:00;101895.15;;;27.96;49.57
76331;BME280;65148;51.912;15.570;2023-06-22T09:42:01;101890.41;;;28.26;52.75
76331;BME280;65148;51.912;15.570;2023-06-22T09:57:03;101875.80;;;28.74;43.45
76331;BME280;65148;51.912;15.570;2023-06-22T10:12:05;101871.96;;;28.85;42.36
76331;BME280;65148;51.912;15.570;2023-06-22T10:27:06;101856.59;;;29.09;44.18
76331;BME280;65148;51.912;15.570;2023-06-22T10:42:07;101860.76;;;29.73;42.81
76331;BME280;65148;51.912;15.570;2023-06-22T10:57:09;101866.31;;;30.28;43.15
76331;BME280;65148;51.912;15.570;2023-06-22T11:12:10;101840.35;;;30.56;43.30
76331;BME280;65148;51.912;15.570;2023-06-22T11:27:38;101840.13;;;30.10;39.13
76331;BME280;65148;51.912;15.570;2023-06-22T11:42:40;101819.32;;;29.53;44.19
76331;BME280;65148;51.912;15.570;2023-06-22T12:12:53;101790.78;;;30.12;40.32
76331;BME280;65148;51.912;15.570;2023-06-22T12:27:54;101775.51;;;30.03;42.91
76331;BME280;65148;51.912;15.570;2023-06-22T12:42:55;101760.73;;;30.17;43.79
76331;BME280;65148;51.912;15.570;2023-06-22T12:57:57;101743.98;;;30.63;43.71
76331;BME280;65148;51.912;15.570;2023-06-22T13:12:58;101742.65;;;31.91;38.18
76331;BME280;65148;51.912;15.570;2023-06-22T13:28:31;101727.07;;;31.55;38.38
76331;BME280;65148;51.912;15.570;2023-06-22T13:43:32;101713.80;;;31.66;38.74
76331;BME280;65148;51.912;15.570;2023-06-22T13:58:34;101703.80;;;31.30;38.08
76331;BME280;65148;51.912;15.570;2023-06-22T14:13:35;101693.34;;;30.52;40.27
76331;BME280;65148;51.912;15.570;2023-06-22T14:28:36;101673.70;;;30.63;40.67
76331;BME280;65148;51.912;15.570;2023-06-22T14:43:37;101662.07;;;30.93;39.12
76331;BME280;65148;51.912;15.570;2023-06-22T14:58:40;101648.02;;;30.68;40.53
76331;BME280;65148;51.912;15.570;2023-06-22T15:13:42;101631.85;;;31.29;38.42
76331;BME280;65148;51.912;15.570;2023-06-22T15:28:43;101604.02;;;31.55;37.56
76331;BME280;65148;51.912;15.570;2023-06-22T15:43:43;101595.98;;;31.54;36.65
76331;BME280;65148;51.912;15.570;2023-06-22T15:58:45;101562.60;;;31.52;37.33
76331;BME280;65148;51.912;15.570;2023-06-22T16:13:46;101563.36;;;31.67;36.44
76331;BME280;65148;51.912;15.570;2023-06-22T16:29:08;101560.73;;;31.25;35.81
76331;BME280;65148;51.912;15.570;2023-06-22T16:47:49;101524.63;;;31.09;35.90
76331;BME280;65148;51.912;15.570;2023-06-22T17:02:51;101517.03;;;30.84;36.53
76331;BME280;65148;51.912;15.570;2023-06-22T20:35:23;101353.38;;;24.38;56.45
76331;BME280;65148;51.912;15.570;2023-06-22T20:50:41;101356.24;;;24.42;56.70
76331;BME280;65148;51.912;15.570;2023-06-22T21:05:42;101324.23;;;24.51;54.32
76331;BME280;65148;51.912;15.570;2023-06-22T21:20:44;101276.27;;;24.81;51.49
76331;BME280;65148;51.912;15.570;2023-06-22T21:35:45;101223.48;;;25.10;49.85
76331;BME280;65148;51.912;15.570;2023-06-22T21:51:03;101186.25;;;25.22;48.98
76331;BME280;65148;51.912;15.570;2023-06-22T22:06:04;101185.28;;;25.11;48.73
76331;BME280;65148;51.912;15.570;2023-06-22T22:21:05;101235.62;;;24.99;49.18
76331;BME280;65148;51.912;15.570;2023-06-22T22:36:06;101212.40;;;24.91;50.21
76331;BME280;65148;51.912;15.570;2023-06-22T22:51:24;101257.38;;;24.70;51.81
76331;BME280;65148;51.912;15.570;2023-06-22T23:06:25;101262.02;;;24.63;55.86
76331;BME280;65148;51.912;15.570;2023-06-22T23:21:26;101229.10;;;24.26;63.50
76331;BME280;65148;51.912;15.570;2023-06-22T23:36:30;101216.00;;;23.53;69.35
76331;BME280;65148;51.912;15.570;2023-06-22T23:51:45;101213.51;;;22.70;83.73
